sensor_id;sensor_type;location;lat;lon;timestamp;pressure;altitude;pressure_sealevel;temperature;humidity
61136;BME280;47021;51.340;12.432;2023-02-19T00:00:37;100078.84;;;13.08;67.67
61136;BME280;47021;51.340;12.432;2023-02-19T00:03:02;100073.72;;;13.07;67.97
61136;BME280;47021;51.340;12.432;2023-02-19T00:05:27;100065.25;;;12.86;68.64
61136;BME280;47021;51.340;12.432;2023-02-19T00:07:58;100070.47;;;13.22;67.59
61136;BME280;47021;51.340;12.432;2023-02-19T00:10:25;100062.25;;;13.62;66.11
61136;BME280;47021;51.340;12.432;2023-02-19T00:12:50;100080.34;;;13.11;68.08
61136;BME280;47021;51.340;12.432;2023-02-19T00:15:15;100066.03;;;13.32;67.20
61136;BME280;47021;51.340;12.432;2023-02-19T00:17:42;100057.00;;;13.44;67.11
61136;BME280;47021;51.340;12.432;2023-02-19T00:20:07;100067.91;;;13.40;67.06
61136;BME280;47021;51.340;12.432;2023-02-19T00:22:33;100062.94;;;13.64;66.18
61136;BME280;47021;51.340;12.432;2023-02-19T00:24:59;100059.19;;;13.67;65.95
61136;BME280;47021;51.340;12.432;2023-02-19T00:27:24;100052.81;;;13.87;65.98
61136;BME280;47021;51.340;12.432;2023-02-19T00:29:50;100064.38;;;13.76;65.72
61136;BME280;47021;51.340;12.432;2023-02-19T00:32:16;100053.81;;;13.86;65.67
61136;BME280;47021;51.340;12.432;2023-02-19T00:34:41;100051.63;;;13.81;65.40
61136;BME280;47021;51.340;12.432;2023-02-19T00:37:07;100060.69;;;13.52;66.58
61136;BME280;47021;51.340;12.432;2023-02-19T00:39:34;100049.81;;;13.64;66.49
61136;BME280;47021;51.340;12.432;2023-02-19T00:42:00;100047.56;;;13.69;66.29
61136;BME280;47021;51.340;12.432;2023-02-19T00:44:27;100048.84;;;13.65;66.59
61136;BME280;47021;51.340;12.432;2023-02-19T00:46:53;100034.66;;;13.58;67.44
61136;BME280;47021;51.340;12.432;2023-02-19T00:49:19;100033.00;;;13.12;69.16
61136;BME280;47021;51.340;12.432;2023-02-19T00:51:46;100035.56;;;13.84;67.38
61136;BME280;47021;51.340;12.432;2023-02-19T00:54:12;100030.31;;;13.49;68.19
61136;BME280;47021;51.340;12.432;2023-02-19T00:56:37;100036.28;;;13.41;68.58
61136;BME280;47021;51.340;12.432;2023-02-19T00:59:04;100039.69;;;13.52;68.46
61136;BME280;47021;51.340;12.432;2023-02-19T01:03:33;100034.22;;;12.35;73.02
61136;BME280;47021;51.340;12.432;2023-02-19T01:06:04;100040.97;;;12.18;73.64
61136;BME280;47021;51.340;12.432;2023-02-19T01:08:37;100042.75;;;12.37;73.15
61136;BME280;47021;51.340;12.432;2023-02-19T01:11:10;100044.38;;;12.94;71.43
61136;BME280;47021;51.340;12.432;2023-02-19T01:13:37;100045.84;;;12.69;72.26
61136;BME280;47021;51.340;12.432;2023-02-19T01:18:35;100031.72;;;12.80;72.06
61136;BME280;47021;51.340;12.432;2023-02-19T01:21:34;100029.47;;;12.57;72.96
61136;BME280;47021;51.340;12.432;2023-02-19T01:23:52;100022.09;;;12.80;72.07
61136;BME280;47021;51.340;12.432;2023-02-19T01:26:21;100025.22;;;12.84;72.19
61136;BME280;47021;51.340;12.432;2023-02-19T01:28:46;100022.97;;;12.61;72.75
61136;BME280;47021;51.340;12.432;2023-02-19T01:31:13;100021.03;;;12.08;75.27
61136;BME280;47021;51.340;12.432;2023-02-19T01:33:39;99999.06;;;12.37;73.77
61136;BME280;47021;51.340;12.432;2023-02-19T01:36:04;99988.03;;;12.80;72.28
61136;BME280;47021;51.340;12.432;2023-02-19T01:38:33;99982.53;;;12.73;72.70
61136;BME280;47021;51.340;12.432;2023-02-19T01:41:00;99978.41;;;13.25;70.82
61136;BME280;47021;51.340;12.432;2023-02-19T01:43:27;99983.09;;;13.31;70.79
61136;BME280;47021;51.340;12.432;2023-02-19T01:45:52;99975.50;;;13.11;71.18
61136;BME280;47021;51.340;12.432;2023-02-19T01:48:33;99976.19;;;13.03;70.96
61136;BME280;47021;51.340;12.432;2023-02-19T01:51:02;99976.47;;;13.00;71.48
61136;BME280;47021;51.340;12.432;2023-02-19T01:53:33;99966.56;;;12.94;71.47
61136;BME280;47021;51.340;12.432;2023-02-19T01:56:12;99957.22;;;13.19;70.69
61136;BME280;47021;51.340;12.432;2023-02-19T01:58:40;99948.47;;;13.28;70.33
61136;BME280;47021;51.340;12.432;2023-02-19T02:03:51;99938.03;;;13.18;70.92
61136;BME280;47021;51.340;12.432;2023-02-19T02:06:29;99923.91;;;13.29;70.68
61136;BME280;47021;51.340;12.432;2023-02-19T02:08:57;99925.97;;;13.25;70.43
61136;BME280;47021;51.340;12.432;2023-02-19T02:11:23;99924.25;;;13.34;70.08
61136;BME280;47021;51.340;12.432;2023-02-19T02:13:51;99918.44;;;13.40;69.78
61136;BME280;47021;51.340;12.432;2023-02-19T02:19:10;99896.09;;;13.18;70.76
61136;BME280;47021;51.340;12.432;2023-02-19T02:30:02;99886.34;;;13.28;70.13
61136;BME280;47021;51.340;12.432;2023-02-19T02:35:14;99867.25;;;13.18;70.38
61136;BME280;47021;51.340;12.432;2023-02-19T02:37:46;99864.78;;;13.17;70.78
61136;BME280;47021;51.340;12.432;2023-02-19T02:45:27;99859.31;;;13.28;69.82
61136;BME280;47021;51.340;12.432;2023-02-19T02:53:23;99857.94;;;13.41;69.88
61136;BME280;47021;51.340;12.432;2023-02-19T02:55:59;99861.88;;;13.20;70.14
61136;BME280;47021;51.340;12.432;2023-02-19T02:58:27;99850.78;;;13.08;71.26
61136;BME280;47021;51.340;12.432;2023-02-19T03:01:06;99854.59;;;13.14;70.41
61136;BME280;47021;51.340;12.432;2023-02-19T03:03:35;99856.88;;;12.99;71.01
61136;BME280;47021;51.340;12.432;2023-02-19T03:06:03;99849.44;;;12.77;72.40
61136;BME280;47021;51.340;12.432;2023-02-19T03:08:35;99846.53;;;12.98;71.37
61136;BME280;47021;51.340;12.432;2023-02-19T03:11:04;99835.09;;;12.99;71.51
61136;BME280;47021;51.340;12.432;2023-02-19T03:13:37;99824.84;;;13.23;70.52
61136;BME280;47021;51.340;12.432;2023-02-19T03:16:07;99817.63;;;12.72;71.57
61136;BME280;47021;51.340;12.432;2023-02-19T03:18:37;99812.25;;;13.09;71.04
61136;BME280;47021;51.340;12.432;2023-02-19T03:21:06;99807.31;;;13.23;70.87
61136;BME280;47021;51.340;12.432;2023-02-19T03:23:34;99807.19;;;13.07;71.44
61136;BME280;47021;51.340;12.432;2023-02-19T03:26:05;99810.09;;;13.22;70.98
61136;BME280;47021;51.340;12.432;2023-02-19T03:28:32;99813.28;;;12.98;71.02
61136;BME280;47021;51.340;12.432;2023-02-19T03:31:07;99814.22;;;12.44;73.47
61136;BME280;47021;51.340;12.432;2023-02-19T03:33:49;99813.13;;;13.00;71.37
61136;BME280;47021;51.340;12.432;2023-02-19T03:36:18;99826.38;;;12.36;73.67
61136;BME280;47021;51.340;12.432;2023-02-19T03:38:50;99822.97;;;12.35;73.94
61136;BME280;47021;51.340;12.432;2023-02-19T03:44:34;99810.19;;;12.67;72.94
61136;BME280;47021;51.340;12.432;2023-02-19T03:49:03;99796.16;;;12.24;74.06
61136;BME280;47021;51.340;12.432;2023-02-19T03:51:35;99787.47;;;12.23;74.57
61136;BME280;47021;51.340;12.432;2023-02-19T03:54:18;99802.19;;;11.97;75.34
61136;BME280;47021;51.340;12.432;2023-02-19T03:56:48;99800.97;;;12.28;74.17
61136;BME280;47021;51.340;12.432;2023-02-19T03:59:35;99790.00;;;11.78;76.43
61136;BME280;47021;51.340;12.432;2023-02-19T04:02:08;99789.63;;;12.55;73.76
61136;BME280;47021;51.340;12.432;2023-02-19T04:04:47;99789.91;;;12.52;73.80
61136;BME280;47021;51.340;12.432;2023-02-19T04:07:13;99794.63;;;12.66;73.15
61136;BME280;47021;51.340;12.432;2023-02-19T04:09:45;99788.78;;;12.54;73.29
61136;BME280;47021;51.340;12.432;2023-02-19T04:12:27;99788.22;;;12.78;72.90
61136;BME280;47021;51.340;12.432;2023-02-19T04:14:58;99787.91;;;12.99;72.07
61136;BME280;47021;51.340;12.432;2023-02-19T04:17:28;99795.09;;;12.61;73.58
61136;BME280;47021;51.340;12.432;2023-02-19T04:19:55;99796.59;;;12.82;72.89
61136;BME280;47021;51.340;12.432;2023-02-19T04:22:23;99793.19;;;12.36;74.04
61136;BME280;47021;51.340;12.432;2023-02-19T04:24:50;99813.88;;;12.02;76.09
61136;BME280;47021;51.340;12.432;2023-02-19T04:27:19;99812.31;;;12.19;76.01
61136;BME280;47021;51.340;12.432;2023-02-19T04:29:47;99820.69;;;11.86;77.65
61136;BME280;47021;51.340;12.432;2023-02-19T04:32:13;99816.47;;;11.75;77.15
61136;BME280;47021;51.340;12.432;2023-02-19T04:34:40;99822.25;;;12.06;76.27
61136;BME280;47021;51.340;12.432;2023-02-19T04:37:19;99837.72;;;11.99;77.01
61136;BME280;47021;51.340;12.432;2023-02-19T04:39:47;99841.25;;;12.08;76.27
61136;BME280;47021;51.340;12.432;2023-02-19T04:42:12;99842.78;;;12.01;76.22
61136;BME280;47021;51.340;12.432;2023-02-19T04:44:39;99855.97;;;11.72;77.66
61136;BME280;47021;51.340;12.432;2023-02-19T04:47:16;99860.25;;;11.45;78.86
61136;BME280;47021;51.340;12.432;2023-02-19T04:49:43;99849.09;;;11.52;78.56
61136;BME280;47021;51.340;12.432;2023-02-19T04:52:14;99847.84;;;11.66;78.04
61136;BME280;47021;51.340;12.432;2023-02-19T04:54:40;99855.25;;;11.61;78.33
61136;BME280;47021;51.340;12.432;2023-02-19T04:57:05;99847.59;;;11.40;77.89
61136;BME280;47021;51.340;12.432;2023-02-19T04:59:37;99848.28;;;11.71;76.73
61136;BME280;47021;51.340;12.432;2023-02-19T05:02:02;99838.09;;;11.68;75.91
61136;BME280;47021;51.340;12.432;2023-02-19T05:04:28;99835.69;;;11.93;75.64
61136;BME280;47021;51.340;12.432;2023-02-19T05:06:53;99840.94;;;11.55;76.39
61136;BME280;47021;51.340;12.432;2023-02-19T05:09:18;99842.03;;;11.62;76.34
61136;BME280;47021;51.340;12.432;2023-02-19T05:11:44;99835.16;;;11.80;75.89
61136;BME280;47021;51.340;12.432;2023-02-19T05:14:10;99827.44;;;11.79;76.21
61136;BME280;47021;51.340;12.432;2023-02-19T05:16:36;99833.41;;;11.62;76.99
61136;BME280;47021;51.340;12.432;2023-02-19T05:19:09;99836.50;;;11.94;75.71
61136;BME280;47021;51.340;12.432;2023-02-19T05:21:38;99836.97;;;11.61;76.89
61136;BME280;47021;51.340;12.432;2023-02-19T05:24:03;99830.00;;;11.98;75.89
61136;BME280;47021;51.340;12.432;2023-02-19T05:26:37;99842.03;;;11.81;75.50
61136;BME280;47021;51.340;12.432;2023-02-19T05:29:15;99846.19;;;11.55;77.52
61136;BME280;47021;51.340;12.432;2023-02-19T05:31:46;99844.28;;;12.03;75.83
61136;BME280;47021;51.340;12.432;2023-02-19T05:34:13;99835.97;;;12.18;75.74
61136;BME280;47021;51.340;12.432;2023-02-19T05:36:39;99843.13;;;12.25;75.21
61136;BME280;47021;51.340;12.432;2023-02-19T05:39:04;99837.00;;;12.34;75.17
61136;BME280;47021;51.340;12.432;2023-02-19T05:41:43;99843.34;;;12.04;76.05
61136;BME280;47021;51.340;12.432;2023-02-19T05:47:00;99844.38;;;12.21;75.60
61136;BME280;47021;51.340;12.432;2023-02-19T05:52:11;99854.13;;;11.92;76.32
61136;BME280;47021;51.340;12.432;2023-02-19T05:54:43;99850.69;;;12.28;75.20
61136;BME280;47021;51.340;12.432;2023-02-19T05:57:10;99848.44;;;12.33;74.70
61136;BME280;47021;51.340;12.432;2023-02-19T05:59:35;99851.00;;;12.43;74.46
61136;BME280;47021;51.340;12.432;2023-02-19T06:02:00;99854.19;;;12.46;74.24
61136;BME280;47021;51.340;12.432;2023-02-19T06:04:27;99852.81;;;12.42;74.70
61136;BME280;47021;51.340;12.432;2023-02-19T06:06:53;99860.41;;;12.63;74.13
61136;BME280;47021;51.340;12.432;2023-02-19T06:09:20;99861.25;;;12.63;73.66
61136;BME280;47021;51.340;12.432;2023-02-19T06:11:46;99871.91;;;12.80;72.85
61136;BME280;47021;51.340;12.432;2023-02-19T06:14:12;99871.94;;;12.70;73.21
61136;BME280;47021;51.340;12.432;2023-02-19T06:19:23;99887.16;;;12.39;74.67
61136;BME280;47021;51.340;12.432;2023-02-19T06:22:05;99882.81;;;12.75;73.70
61136;BME280;47021;51.340;12.432;2023-02-19T06:24:38;99893.34;;;12.65;73.38
61136;BME280;47021;51.340;12.432;2023-02-19T06:27:06;99895.94;;;12.75;73.12
61136;BME280;47021;51.340;12.432;2023-02-19T06:29:32;99899.16;;;12.87;72.28
61136;BME280;47021;51.340;12.432;2023-02-19T06:32:04;99901.13;;;12.85;72.49
61136;BME280;47021;51.340;12.432;2023-02-19T06:34:32;99903.72;;;12.67;73.48
61136;BME280;47021;51.340;12.432;2023-02-19T06:36:59;99911.69;;;12.38;74.15
61136;BME280;47021;51.340;12.432;2023-02-19T06:39:25;99908.69;;;12.60;73.87
61136;BME280;47021;51.340;12.432;2023-02-19T06:41:50;99927.91;;;12.05;75.45
61136;BME280;47021;51.340;12.432;2023-02-19T06:44:18;99932.72;;;12.10;75.84
61136;BME280;47021;51.340;12.432;2023-02-19T06:46:43;99945.41;;;11.95;76.17
61136;BME280;47021;51.340;12.432;2023-02-19T06:49:09;99959.06;;;11.70;77.15
61136;BME280;47021;51.340;12.432;2023-02-19T06:51:46;99966.22;;;10.90;77.45
61136;BME280;47021;51.340;12.432;2023-02-19T06:54:17;99990.88;;;10.67;76.58
61136;BME280;47021;51.340;12.432;2023-02-19T06:56:49;99995.31;;;10.45;76.43
61136;BME280;47021;51.340;12.432;2023-02-19T06:59:32;100006.41;;;10.58;76.33
61136;BME280;47021;51.340;12.432;2023-02-19T07:02:03;100001.97;;;10.59;76.28
61136;BME280;47021;51.340;12.432;2023-02-19T07:07:22;100025.59;;;9.64;76.96
61136;BME280;47021;51.340;12.432;2023-02-19T07:10:00;100040.34;;;9.43;77.18
61136;BME280;47021;51.340;12.432;2023-02-19T07:12:27;100046.91;;;9.37;77.05
61136;BME280;47021;51.340;12.432;2023-02-19T07:15:09;100037.19;;;9.28;76.58
61136;BME280;47021;51.340;12.432;2023-02-19T07:17:36;100055.69;;;9.14;76.33
61136;BME280;47021;51.340;12.432;2023-02-19T07:20:01;100054.75;;;8.82;77.05
61136;BME280;47021;51.340;12.432;2023-02-19T07:22:29;100063.13;;;8.85;77.52
61136;BME280;47021;51.340;12.432;2023-02-19T07:24:55;100075.09;;;8.66;77.39
61136;BME280;47021;51.340;12.432;2023-02-19T07:27:22;100083.34;;;9.26;75.98
61136;BME280;47021;51.340;12.432;2023-02-19T07:29:53;100096.75;;;8.88;76.95
61136;BME280;47021;51.340;12.432;2023-02-19T07:32:19;100108.00;;;9.11;76.16
61136;BME280;47021;51.340;12.432;2023-02-19T07:34:44;100114.47;;;8.61;76.67
61136;BME280;47021;51.340;12.432;2023-02-19T07:37:17;100112.66;;;8.50;77.07
61136;BME280;47021;51.340;12.432;2023-02-19T07:39:42;100121.38;;;8.84;75.86
61136;BME280;47021;51.340;12.432;2023-02-19T07:42:07;100127.63;;;8.71;75.85
61136;BME280;47021;51.340;12.432;2023-02-19T07:44:32;100136.06;;;8.50;76.37
61136;BME280;47021;51.340;12.432;2023-02-19T07:46:57;100147.94;;;8.55;76.06
61136;BME280;47021;51.340;12.432;2023-02-19T07:49:25;100157.91;;;8.83;75.25
61136;BME280;47021;51.340;12.432;2023-02-19T07:51:50;100173.44;;;8.84;75.49
61136;BME280;47021;51.340;12.432;2023-02-19T07:54:16;100186.81;;;8.80;75.36
61136;BME280;47021;51.340;12.432;2023-02-19T07:56:51;100184.06;;;8.23;76.01
61136;BME280;47021;51.340;12.432;2023-02-19T07:59:16;100186.78;;;8.21;75.89
61136;BME280;47021;51.340;12.432;2023-02-19T08:01:42;100199.91;;;8.20;75.57
61136;BME280;47021;51.340;12.432;2023-02-19T08:04:08;100204.91;;;8.10;75.82
61136;BME280;47021;51.340;12.432;2023-02-19T08:06:40;100216.50;;;7.94;76.05
61136;BME280;47021;51.340;12.432;2023-02-19T08:09:12;100215.13;;;7.64;76.95
61136;BME280;47021;51.340;12.432;2023-02-19T08:11:38;100218.78;;;7.98;75.96
61136;BME280;47021;51.340;12.432;2023-02-19T08:14:03;100221.56;;;8.08;75.31
61136;BME280;47021;51.340;12.432;2023-02-19T08:16:31;100232.03;;;7.82;76.27
61136;BME280;47021;51.340;12.432;2023-02-19T08:19:04;100239.94;;;7.81;75.59
61136;BME280;47021;51.340;12.432;2023-02-19T08:21:34;100243.06;;;7.86;76.07
61136;BME280;47021;51.340;12.432;2023-02-19T08:24:00;100252.06;;;7.93;75.05
61136;BME280;47021;51.340;12.432;2023-02-19T08:26:27;100268.03;;;8.25;74.48
61136;BME280;47021;51.340;12.432;2023-02-19T08:29:05;100273.34;;;7.74;75.68
61136;BME280;47021;51.340;12.432;2023-02-19T08:31:31;100275.81;;;7.38;76.69
61136;BME280;47021;51.340;12.432;2023-02-19T08:33:57;100282.78;;;7.50;75.83
61136;BME280;47021;51.340;12.432;2023-02-19T08:36:22;100291.00;;;7.32;75.91
61136;BME280;47021;51.340;12.432;2023-02-19T08:38:50;100314.69;;;7.52;75.50
61136;BME280;47021;51.340;12.432;2023-02-19T08:41:17;100324.69;;;6.94;76.02
61136;BME280;47021;51.340;12.432;2023-02-19T08:43:51;100319.88;;;6.88;76.29
61136;BME280;47021;51.340;12.432;2023-02-19T08:46:30;100332.56;;;6.66;76.33
61136;BME280;47021;51.340;12.432;2023-02-19T08:49:04;100341.66;;;6.85;76.32
61136;BME280;47021;51.340;12.432;2023-02-19T08:51:30;100340.56;;;6.89;75.59
61136;BME280;47021;51.340;12.432;2023-02-19T08:53:55;100338.69;;;7.31;74.85
61136;BME280;47021;51.340;12.432;2023-02-19T08:56:21;100351.16;;;7.38;74.01
61136;BME280;47021;51.340;12.432;2023-02-19T09:01:31;100371.88;;;6.86;74.61
61136;BME280;47021;51.340;12.432;2023-02-19T09:03:58;100373.53;;;7.14;73.70
61136;BME280;47021;51.340;12.432;2023-02-19T09:06:23;100380.53;;;7.91;71.91
61136;BME280;47021;51.340;12.432;2023-02-19T09:08:48;100383.16;;;7.39;72.59
61136;BME280;47021;51.340;12.432;2023-02-19T09:11:30;100385.78;;;7.64;72.43
61136;BME280;47021;51.340;12.432;2023-02-19T09:13:57;100390.03;;;7.40;72.74
61136;BME280;47021;51.340;12.432;2023-02-19T09:16:24;100398.34;;;7.45;72.48
61136;BME280;47021;51.340;12.432;2023-02-19T09:18:56;100411.84;;;7.37;73.00
61136;BME280;47021;51.340;12.432;2023-02-19T09:21:23;100415.53;;;7.21;73.29
61136;BME280;47021;51.340;12.432;2023-02-19T09:23:51;100435.09;;;6.85;74.42
61136;BME280;47021;51.340;12.432;2023-02-19T09:26:28;100421.69;;;7.32;73.34
61136;BME280;47021;51.340;12.432;2023-02-19T09:28:55;100430.63;;;7.41;72.39
61136;BME280;47021;51.340;12.432;2023-02-19T09:31:22;100432.88;;;7.59;71.79
61136;BME280;47021;51.340;12.432;2023-02-19T09:34:00;100430.56;;;7.16;72.10
61136;BME280;47021;51.340;12.432;2023-02-19T09:36:26;100431.16;;;8.10;70.29
61136;BME280;47021;51.340;12.432;2023-02-19T09:38:54;100430.72;;;7.91;70.03
61136;BME280;47021;51.340;12.432;2023-02-19T09:41:28;100438.63;;;8.02;69.42
61136;BME280;47021;51.340;12.432;2023-02-19T09:43:54;100443.91;;;7.63;70.73
61136;BME280;47021;51.340;12.432;2023-02-19T09:46:23;100448.63;;;7.44;70.92
61136;BME280;47021;51.340;12.432;2023-02-19T09:48:54;100446.34;;;8.04;69.33
61136;BME280;47021;51.340;12.432;2023-02-19T09:51:22;100461.44;;;8.62;68.27
61136;BME280;47021;51.340;12.432;2023-02-19T09:53:51;100460.59;;;7.86;69.33
61136;BME280;47021;51.340;12.432;2023-02-19T09:56:20;100450.63;;;8.42;68.27
61136;BME280;47021;51.340;12.432;2023-02-19T09:59:04;100461.25;;;8.39;68.06
61136;BME280;47021;51.340;12.432;2023-02-19T10:01:31;100462.69;;;8.43;68.56
61136;BME280;47021;51.340;12.432;2023-02-19T10:03:57;100480.41;;;8.26;68.65
61136;BME280;47021;51.340;12.432;2023-02-19T10:06:24;100487.72;;;8.07;68.58
61136;BME280;47021;51.340;12.432;2023-02-19T10:08:50;100497.72;;;8.00;68.57
61136;BME280;47021;51.340;12.432;2023-02-19T10:14:11;100513.66;;;8.08;67.96
61136;BME280;47021;51.340;12.432;2023-02-19T10:16:39;100516.63;;;8.29;68.02
61136;BME280;47021;51.340;12.432;2023-02-19T10:19:08;100517.03;;;8.35;68.11
61136;BME280;47021;51.340;12.432;2023-02-19T10:21:40;100519.63;;;8.61;67.04
61136;BME280;47021;51.340;12.432;2023-02-19T10:24:05;100522.66;;;7.90;68.79
61136;BME280;47021;51.340;12.432;2023-02-19T10:26:32;100527.03;;;8.29;68.25
61136;BME280;47021;51.340;12.432;2023-02-19T10:29:08;100535.66;;;8.29;66.13
61136;BME280;47021;51.340;12.432;2023-02-19T10:31:34;100533.09;;;8.03;67.67
61136;BME280;47021;51.340;12.432;2023-02-19T10:34:15;100527.09;;;9.03;65.10
61136;BME280;47021;51.340;12.432;2023-02-19T10:36:41;100524.72;;;8.75;65.17
61136;BME280;47021;51.340;12.432;2023-02-19T10:39:19;100542.75;;;8.01;67.03
61136;BME280;47021;51.340;12.432;2023-02-19T10:41:57;100564.03;;;7.80;67.85
61136;BME280;47021;51.340;12.432;2023-02-19T10:44:24;100567.84;;;8.02;67.08
61136;BME280;47021;51.340;12.432;2023-02-19T10:46:50;100557.84;;;8.47;66.61
61136;BME280;47021;51.340;12.432;2023-02-19T10:49:22;100553.25;;;8.38;64.56
61136;BME280;47021;51.340;12.432;2023-02-19T10:54:33;100582.41;;;8.56;65.21
61136;BME280;47021;51.340;12.432;2023-02-19T10:59:49;100588.44;;;8.31;64.21
61136;BME280;47021;51.340;12.432;2023-02-19T11:02:26;100585.75;;;8.58;63.92
61136;BME280;47021;51.340;12.432;2023-02-19T11:10:22;100614.19;;;8.22;63.28
61136;BME280;47021;51.340;12.432;2023-02-19T11:12:52;100611.56;;;8.22;62.27
61136;BME280;47021;51.340;12.432;2023-02-19T11:15:19;100616.34;;;7.89;63.25
61136;BME280;47021;51.340;12.432;2023-02-19T11:17:55;100611.03;;;8.94;60.55
61136;BME280;47021;51.340;12.432;2023-02-19T11:23:09;100612.19;;;9.02;60.06
61136;BME280;47021;51.340;12.432;2023-02-19T11:30:47;100622.41;;;8.93;60.28
61136;BME280;47021;51.340;12.432;2023-02-19T11:35:41;100637.59;;;8.99;61.00
61136;BME280;47021;51.340;12.432;2023-02-19T11:43:38;100631.38;;;9.14;58.59
61136;BME280;47021;51.340;12.432;2023-02-19T11:46:13;100638.97;;;9.04;59.85
61136;BME280;47021;51.340;12.432;2023-02-19T11:48:59;100633.53;;;10.29;59.96
61136;BME280;47021;51.340;12.432;2023-02-19T11:54:43;100650.06;;;9.57;58.71
61136;BME280;47021;51.340;12.432;2023-02-19T11:59:59;100651.16;;;9.04;58.47
61136;BME280;47021;51.340;12.432;2023-02-19T12:05:17;100641.63;;;9.41;59.07
61136;BME280;47021;51.340;12.432;2023-02-19T12:07:50;100647.09;;;8.87;59.74
61136;BME280;47021;51.340;12.432;2023-02-19T12:24:15;100652.97;;;9.65;57.96
61136;BME280;47021;51.340;12.432;2023-02-19T12:45:35;100655.09;;;9.22;57.47
61136;BME280;47021;51.340;12.432;2023-02-19T12:50:31;100674.47;;;9.31;56.38
61136;BME280;47021;51.340;12.432;2023-02-19T12:53:00;100661.25;;;9.46;55.41
61136;BME280;47021;51.340;12.432;2023-02-19T12:55:33;100662.19;;;9.81;55.08
61136;BME280;47021;51.340;12.432;2023-02-19T12:58:02;100660.84;;;9.76;54.77
61136;BME280;47021;51.340;12.432;2023-02-19T13:00:40;100670.00;;;9.81;55.10
61136;BME280;47021;51.340;12.432;2023-02-19T13:08:06;100685.22;;;9.39;54.27
61136;BME280;47021;51.340;12.432;2023-02-19T13:10:49;100701.69;;;9.27;53.97
61136;BME280;47021;51.340;12.432;2023-02-19T13:13:34;100682.16;;;9.57;54.15
61136;BME280;47021;51.340;12.432;2023-02-19T13:16:05;100679.88;;;9.40;54.59
61136;BME280;47021;51.340;12.432;2023-02-19T13:18:38;100681.16;;;9.35;54.21
61136;BME280;47021;51.340;12.432;2023-02-19T13:21:06;100682.81;;;9.48;53.92
61136;BME280;47021;51.340;12.432;2023-02-19T13:23:37;100695.13;;;9.46;54.17
61136;BME280;47021;51.340;12.432;2023-02-19T13:28:51;100692.28;;;9.49;54.69
61136;BME280;47021;51.340;12.432;2023-02-19T13:31:30;100690.84;;;9.20;53.46
61136;BME280;47021;51.340;12.432;2023-02-19T13:36:42;100700.38;;;9.70;52.90
61136;BME280;47021;51.340;12.432;2023-02-19T13:39:15;100690.84;;;9.20;52.78
61136;BME280;47021;51.340;12.432;2023-02-19T13:41:58;100701.97;;;9.47;53.05
61136;BME280;47021;51.340;12.432;2023-02-19T13:44:32;100692.06;;;10.01;51.66
61136;BME280;47021;51.340;12.432;2023-02-19T13:47:13;100697.63;;;9.48;52.12
61136;BME280;47021;51.340;12.432;2023-02-19T13:49:51;100703.25;;;9.29;53.14
61136;BME280;47021;51.340;12.432;2023-02-19T13:57:38;100710.41;;;10.00;51.22
61136;BME280;47021;51.340;12.432;2023-02-19T14:00:21;100722.72;;;10.10;51.69
61136;BME280;47021;51.340;12.432;2023-02-19T14:02:48;100718.38;;;10.58;50.97
61136;BME280;47021;51.340;12.432;2023-02-19T14:07:57;100727.28;;;9.83;51.22
61136;BME280;47021;51.340;12.432;2023-02-19T14:13:08;100739.28;;;9.60;52.29
61136;BME280;47021;51.340;12.432;2023-02-19T14:20:45;100727.59;;;10.86;49.68
61136;BME280;47021;51.340;12.432;2023-02-19T14:23:22;100731.09;;;10.39;50.99
61136;BME280;47021;51.340;12.432;2023-02-19T14:25:56;100730.56;;;9.98;51.32
61136;BME280;47021;51.340;12.432;2023-02-19T14:31:00;100731.13;;;9.90;51.88
61136;BME280;47021;51.340;12.432;2023-02-19T14:33:43;100726.22;;;9.85;51.60
61136;BME280;47021;51.340;12.432;2023-02-19T14:41:38;100744.53;;;10.09;51.03
61136;BME280;47021;51.340;12.432;2023-02-19T14:44:06;100743.88;;;9.82;51.75
61136;BME280;47021;51.340;12.432;2023-02-19T14:46:37;100732.81;;;10.27;50.88
61136;BME280;47021;51.340;12.432;2023-02-19T14:51:49;100737.66;;;10.44;50.44
61136;BME280;47021;51.340;12.432;2023-02-19T14:54:31;100742.97;;;10.19;50.21
61136;BME280;47021;51.340;12.432;2023-02-19T14:57:14;100736.78;;;10.56;50.32
61136;BME280;47021;51.340;12.432;2023-02-19T15:00:00;100730.84;;;11.00;49.13
61136;BME280;47021;51.340;12.432;2023-02-19T15:02:28;100736.09;;;10.42;50.47
61136;BME280;47021;51.340;12.432;2023-02-19T15:07:30;100735.41;;;9.91;50.99
61136;BME280;47021;51.340;12.432;2023-02-19T15:09:58;100746.28;;;9.72;51.16
61136;BME280;47021;51.340;12.432;2023-02-19T15:12:25;100741.25;;;9.82;50.81
61136;BME280;47021;51.340;12.432;2023-02-19T15:14:59;100737.78;;;9.94;51.17
61136;BME280;47021;51.340;12.432;2023-02-19T15:17:29;100746.00;;;10.01;50.82
61136;BME280;47021;51.340;12.432;2023-02-19T15:25:19;100748.59;;;10.84;49.32
61136;BME280;47021;51.340;12.432;2023-02-19T15:30:29;100761.41;;;10.29;49.86
61136;BME280;47021;51.340;12.432;2023-02-19T15:32:56;100761.06;;;9.72;51.84
61136;BME280;47021;51.340;12.432;2023-02-19T15:35:23;100756.81;;;9.58;51.44
61136;BME280;47021;51.340;12.432;2023-02-19T15:38:03;100756.63;;;9.74;50.63
61136;BME280;47021;51.340;12.432;2023-02-19T15:40:30;100753.81;;;9.27;51.37
61136;BME280;47021;51.340;12.432;2023-02-19T15:42:56;100767.22;;;9.83;49.96
61136;BME280;47021;51.340;12.432;2023-02-19T15:48:10;100765.28;;;9.62;51.29
61136;BME280;47021;51.340;12.432;2023-02-19T16:03:36;100762.88;;;9.46;51.81
61136;BME280;47021;51.340;12.432;2023-02-19T16:06:21;100777.47;;;9.36;52.63
61136;BME280;47021;51.340;12.432;2023-02-19T16:09:03;100777.34;;;9.12;53.12